sensor_id;sensor_type;location;lat;lon;timestamp;P1;durP1;ratioP1;P2;durP2;ratioP2
7557;SDS011;3820;51.098;13.716;2023-10-08T00:00:25;5.80;;;2.47;;
7557;SDS011;3820;51.098;13.716;2023-10-08T00:03:12;6.55;;;2.38;;
7557;SDS011;3820;51.098;13.716;2023-10-08T00:05:41;4.55;;;2.80;;
7557;SDS011;3820;51.098;13.716;2023-10-08T00:08:08;6.88;;;3.00;;
7557;SDS011;3820;51.098;13.716;2023-10-08T00:10:39;4.00;;;1.95;;
7557;SDS011;3820;51.098;13.716;2023-10-08T00:13:10;6.43;;;2.28;;
7557;SDS011;3820;51.098;13.716;2023-10-08T00:15:38;5.38;;;2.38;;
7557;SDS011;3820;51.098;13.716;2023-10-08T00:18:16;4.18;;;2.33;;
7557;SDS011;3820;51.098;13.716;2023-10-08T00:20:44;4.53;;;2.17;;
7557;SDS011;3820;51.098;13.716;2023-10-08T00:23:29;3.72;;;2.67;;
7557;SDS011;3820;51.098;13.716;2023-10-08T00:25:58;4.60;;;2.92;;
7557;SDS011;3820;51.098;13.716;2023-10-08T00:28:31;4.82;;;2.55;;
7557;SDS011;3820;51.098;13.716;2023-10-08T00:30:58;4.32;;;2.72;;
7557;SDS011;3820;51.098;13.716;2023-10-08T00:33:32;4.40;;;2.58;;
7557;SDS011;3820;51.098;13.716;2023-10-08T00:35:59;4.18;;;2.50;;
7557;SDS011;3820;51.098;13.716;2023-10-08T00:38:26;5.63;;;2.78;;
7557;SDS011;3820;51.098;13.716;2023-10-08T00:40:58;6.07;;;2.70;;
7557;SDS011;3820;51.098;13.716;2023-10-08T00:43:33;3.95;;;2.72;;
7557;SDS011;3820;51.098;13.716;2023-10-08T00:46:02;5.45;;;3.10;;
7557;SDS011;3820;51.098;13.716;2023-10-08T00:48:43;6.57;;;3.20;;
7557;SDS011;3820;51.098;13.716;2023-10-08T00:51:11;4.05;;;2.80;;
7557;SDS011;3820;51.098;13.716;2023-10-08T00:54:02;5.47;;;2.88;;
7557;SDS011;3820;51.098;13.716;2023-10-08T00:56:33;7.25;;;2.95;;
7557;SDS011;3820;51.098;13.716;2023-10-08T00:59:31;4.65;;;3.17;;
7557;SDS011;3820;51.098;13.716;2023-10-08T01:02:03;6.70;;;3.28;;
7557;SDS011;3820;51.098;13.716;2023-10-08T01:04:33;5.78;;;3.10;;
7557;SDS011;3820;51.098;13.716;2023-10-08T01:07:04;4.68;;;3.25;;
7557;SDS011;3820;51.098;13.716;2023-10-08T01:09:42;6.80;;;3.65;;
7557;SDS011;3820;51.098;13.716;2023-10-08T01:12:14;5.55;;;3.30;;
7557;SDS011;3820;51.098;13.716;2023-10-08T01:14:42;7.97;;;3.90;;
7557;SDS011;3820;51.098;13.716;2023-10-08T01:17:10;8.25;;;3.70;;
7557;SDS011;3820;51.098;13.716;2023-10-08T01:19:41;5.30;;;3.40;;
7557;SDS011;3820;51.098;13.716;2023-10-08T01:22:12;8.77;;;5.20;;
7557;SDS011;3820;51.098;13.716;2023-10-08T01:24:43;7.53;;;4.20;;
7557;SDS011;3820;51.098;13.716;2023-10-08T01:27:11;7.68;;;4.55;;
7557;SDS011;3820;51.098;13.716;2023-10-08T01:29:38;7.47;;;5.10;;
7557;SDS011;3820;51.098;13.716;2023-10-08T01:32:06;8.25;;;5.38;;
7557;SDS011;3820;51.098;13.716;2023-10-08T01:34:37;11.85;;;6.25;;
7557;SDS011;3820;51.098;13.716;2023-10-08T01:37:05;11.32;;;6.53;;
7557;SDS011;3820;51.098;13.716;2023-10-08T01:39:36;9.98;;;6.72;;
7557;SDS011;3820;51.098;13.716;2023-10-08T01:42:04;9.73;;;5.63;;
7557;SDS011;3820;51.098;13.716;2023-10-08T01:44:32;3.22;;;2.25;;
7557;SDS011;3820;51.098;13.716;2023-10-08T01:47:03;2.17;;;1.50;;
7557;SDS011;3820;51.098;13.716;2023-10-08T01:49:31;3.42;;;1.60;;
7557;SDS011;3820;51.098;13.716;2023-10-08T01:52:00;2.30;;;1.70;;
7557;SDS011;3820;51.098;13.716;2023-10-08T01:54:33;0.95;;;0.80;;
7557;SDS011;3820;51.098;13.716;2023-10-08T01:57:02;0.50;;;0.50;;
7557;SDS011;3820;51.098;13.716;2023-10-08T01:59:31;0.55;;;0.55;;
7557;SDS011;3820;51.098;13.716;2023-10-08T02:01:58;0.50;;;0.50;;
7557;SDS011;3820;51.098;13.716;2023-10-08T02:04:25;0.30;;;0.30;;
7557;SDS011;3820;51.098;13.716;2023-10-08T02:06:52;0.40;;;0.40;;
7557;SDS011;3820;51.098;13.716;2023-10-08T02:09:19;0.30;;;0.30;;
7557;SDS011;3820;51.098;13.716;2023-10-08T02:11:52;0.30;;;0.30;;
7557;SDS011;3820;51.098;13.716;2023-10-08T02:14:20;0.22;;;0.22;;
7557;SDS011;3820;51.098;13.716;2023-10-08T02:16:49;0.20;;;0.20;;
7557;SDS011;3820;51.098;13.716;2023-10-08T02:19:19;0.20;;;0.20;;
7557;SDS011;3820;51.098;13.716;2023-10-08T02:21:54;0.30;;;0.30;;
7557;SDS011;3820;51.098;13.716;2023-10-08T02:24:21;0.30;;;0.30;;
7557;SDS011;3820;51.098;13.716;2023-10-08T02:26:51;0.30;;;0.30;;
7557;SDS011;3820;51.098;13.716;2023-10-08T02:29:19;0.38;;;0.38;;
7557;SDS011;3820;51.098;13.716;2023-10-08T02:31:45;0.30;;;0.30;;
7557;SDS011;3820;51.098;13.716;2023-10-08T02:34:12;0.38;;;0.38;;
7557;SDS011;3820;51.098;13.716;2023-10-08T02:36:40;0.30;;;0.30;;
7557;SDS011;3820;51.098;13.716;2023-10-08T02:39:08;0.30;;;0.30;;
7557;SDS011;3820;51.098;13.716;2023-10-08T02:41:48;0.30;;;0.30;;
7557;SDS011;3820;51.098;13.716;2023-10-08T02:44:16;0.30;;;0.30;;
7557;SDS011;3820;51.098;13.716;2023-10-08T02:46:44;0.40;;;0.40;;
7557;SDS011;3820;51.098;13.716;2023-10-08T02:49:14;0.45;;;0.45;;
7557;SDS011;3820;51.098;13.716;2023-10-08T02:51:54;0.40;;;0.40;;
7557;SDS011;3820;51.098;13.716;2023-10-08T02:54:22;0.50;;;0.50;;
7557;SDS011;3820;51.098;13.716;2023-10-08T02:56:57;0.50;;;0.50;;
7557;SDS011;3820;51.098;13.716;2023-10-08T02:59:31;0.50;;;0.50;;
7557;SDS011;3820;51.098;13.716;2023-10-08T03:02:20;0.47;;;0.47;;
7557;SDS011;3820;51.098;13.716;2023-10-08T03:04:49;0.50;;;0.50;;
7557;SDS011;3820;51.098;13.716;2023-10-08T03:07:18;0.43;;;0.43;;
7557;SDS011;3820;51.098;13.716;2023-10-08T03:09:49;0.40;;;0.40;;
7557;SDS011;3820;51.098;13.716;2023-10-08T03:12:17;0.40;;;0.40;;
7557;SDS011;3820;51.098;13.716;2023-10-08T03:14:44;0.40;;;0.40;;
7557;SDS011;3820;51.098;13.716;2023-10-08T03:17:28;0.35;;;0.35;;
7557;SDS011;3820;51.098;13.716;2023-10-08T03:19:56;0.40;;;0.40;;
7557;SDS011;3820;51.098;13.716;2023-10-08T03:22:44;0.25;;;0.25;;
7557;SDS011;3820;51.098;13.716;2023-10-08T03:25:12;0.30;;;0.30;;
7557;SDS011;3820;51.098;13.716;2023-10-08T03:27:43;0.20;;;0.20;;
7557;SDS011;3820;51.098;13.716;2023-10-08T03:30:10;0.22;;;0.22;;
7557;SDS011;3820;51.098;13.716;2023-10-08T03:32:44;0.30;;;0.30;;
7557;SDS011;3820;51.098;13.716;2023-10-08T03:35:12;0.32;;;0.32;;
7557;SDS011;3820;51.098;13.716;2023-10-08T03:37:39;0.55;;;0.55;;
7557;SDS011;3820;51.098;13.716;2023-10-08T03:40:12;0.55;;;0.55;;
7557;SDS011;3820;51.098;13.716;2023-10-08T03:42:58;0.50;;;0.50;;
7557;SDS011;3820;51.098;13.716;2023-10-08T03:45:25;0.40;;;0.40;;
7557;SDS011;3820;51.098;13.716;2023-10-08T03:48:11;0.93;;;0.60;;
7557;SDS011;3820;51.098;13.716;2023-10-08T03:50:42;0.50;;;0.50;;
7557;SDS011;3820;51.098;13.716;2023-10-08T03:53:09;4.57;;;0.90;;
7557;SDS011;3820;51.098;13.716;2023-10-08T03:55:39;1.70;;;0.82;;
7557;SDS011;3820;51.098;13.716;2023-10-08T03:58:09;3.50;;;0.98;;
7557;SDS011;3820;51.098;13.716;2023-10-08T04:01:00;3.45;;;0.90;;
7557;SDS011;3820;51.098;13.716;2023-10-08T04:03:44;2.92;;;1.48;;
7557;SDS011;3820;51.098;13.716;2023-10-08T04:06:19;1.83;;;1.20;;
7557;SDS011;3820;51.098;13.716;2023-10-08T04:08:49;3.20;;;1.10;;
7557;SDS011;3820;51.098;13.716;2023-10-08T04:11:38;2.65;;;1.10;;
7557;SDS011;3820;51.098;13.716;2023-10-08T04:14:18;3.60;;;1.13;;
7557;SDS011;3820;51.098;13.716;2023-10-08T04:16:45;1.90;;;1.20;;
7557;SDS011;3820;51.098;13.716;2023-10-08T04:19:12;3.97;;;1.35;;
7557;SDS011;3820;51.098;13.716;2023-10-08T04:21:39;1.88;;;1.00;;
7557;SDS011;3820;51.098;13.716;2023-10-08T04:24:09;4.00;;;0.90;;
7557;SDS011;3820;51.098;13.716;2023-10-08T04:26:37;1.77;;;1.45;;
7557;SDS011;3820;51.098;13.716;2023-10-08T04:29:06;1.67;;;1.08;;
7557;SDS011;3820;51.098;13.716;2023-10-08T04:31:33;1.60;;;1.00;;
7557;SDS011;3820;51.098;13.716;2023-10-08T04:34:04;1.15;;;0.73;;
7557;SDS011;3820;51.098;13.716;2023-10-08T04:36:36;3.42;;;1.15;;
7557;SDS011;3820;51.098;13.716;2023-10-08T04:39:06;2.53;;;1.17;;
7557;SDS011;3820;51.098;13.716;2023-10-08T04:41:40;1.73;;;1.00;;
7557;SDS011;3820;51.098;13.716;2023-10-08T04:44:09;1.80;;;1.17;;
7557;SDS011;3820;51.098;13.716;2023-10-08T04:46:41;1.30;;;1.10;;
7557;SDS011;3820;51.098;13.716;2023-10-08T04:49:18;1.88;;;0.80;;
7557;SDS011;3820;51.098;13.716;2023-10-08T04:51:55;3.40;;;1.00;;
7557;SDS011;3820;51.098;13.716;2023-10-08T04:54:26;1.40;;;0.90;;
7557;SDS011;3820;51.098;13.716;2023-10-08T04:56:57;2.27;;;1.07;;
7557;SDS011;3820;51.098;13.716;2023-10-08T04:59:25;1.08;;;0.80;;
7557;SDS011;3820;51.098;13.716;2023-10-08T05:02:02;3.50;;;1.20;;
7557;SDS011;3820;51.098;13.716;2023-10-08T05:04:49;1.67;;;1.03;;
7557;SDS011;3820;51.098;13.716;2023-10-08T05:07:43;3.27;;;1.13;;
7557;SDS011;3820;51.098;13.716;2023-10-08T05:10:13;4.32;;;1.10;;
7557;SDS011;3820;51.098;13.716;2023-10-08T05:12:50;1.70;;;1.00;;
7557;SDS011;3820;51.098;13.716;2023-10-08T05:15:37;1.45;;;0.70;;
7557;SDS011;3820;51.098;13.716;2023-10-08T05:18:31;0.90;;;0.90;;
7557;SDS011;3820;51.098;13.716;2023-10-08T05:21:17;3.22;;;0.93;;
7557;SDS011;3820;51.098;13.716;2023-10-08T05:23:54;1.77;;;0.80;;
7557;SDS011;3820;51.098;13.716;2023-10-08T05:26:38;3.80;;;1.73;;
7557;SDS011;3820;51.098;13.716;2023-10-08T05:29:09;1.48;;;1.15;;
7557;SDS011;3820;51.098;13.716;2023-10-08T05:31:54;0.85;;;0.80;;
7557;SDS011;3820;51.098;13.716;2023-10-08T05:34:40;1.10;;;0.80;;
7557;SDS011;3820;51.098;13.716;2023-10-08T05:37:17;1.05;;;0.80;;
7557;SDS011;3820;51.098;13.716;2023-10-08T05:40:04;2.03;;;0.90;;
7557;SDS011;3820;51.098;13.716;2023-10-08T05:42:44;1.50;;;1.00;;
7557;SDS011;3820;51.098;13.716;2023-10-08T05:45:16;1.35;;;0.70;;
7557;SDS011;3820;51.098;13.716;2023-10-08T05:47:59;0.82;;;0.82;;
7557;SDS011;3820;51.098;13.716;2023-10-08T05:50:42;1.58;;;0.90;;
7557;SDS011;3820;51.098;13.716;2023-10-08T05:53:39;2.55;;;1.00;;
7557;SDS011;3820;51.098;13.716;2023-10-08T05:56:11;1.67;;;1.13;;
7557;SDS011;3820;51.098;13.716;2023-10-08T05:58:55;1.65;;;0.90;;
7557;SDS011;3820;51.098;13.716;2023-10-08T06:01:40;1.90;;;1.17;;
7557;SDS011;3820;51.098;13.716;2023-10-08T06:04:09;1.17;;;1.07;;
7557;SDS011;3820;51.098;13.716;2023-10-08T06:07:07;1.52;;;1.08;;
7557;SDS011;3820;51.098;13.716;2023-10-08T06:09:49;1.35;;;1.17;;
7557;SDS011;3820;51.098;13.716;2023-10-08T06:12:29;3.72;;;1.35;;
7557;SDS011;3820;51.098;13.716;2023-10-08T06:15:11;2.10;;;1.27;;
7557;SDS011;3820;51.098;13.716;2023-10-08T06:17:38;2.50;;;1.17;;
7557;SDS011;3820;51.098;13.716;2023-10-08T06:20:25;1.05;;;0.95;;
7557;SDS011;3820;51.098;13.716;2023-10-08T06:22:53;0.63;;;0.63;;
7557;SDS011;3820;51.098;13.716;2023-10-08T06:25:25;2.45;;;0.90;;
7557;SDS011;3820;51.098;13.716;2023-10-08T06:27:54;3.05;;;0.88;;
7557;SDS011;3820;51.098;13.716;2023-10-08T06:30:24;0.90;;;0.80;;
7557;SDS011;3820;51.098;13.716;2023-10-08T06:32:55;1.83;;;1.20;;
7557;SDS011;3820;51.098;13.716;2023-10-08T06:35:23;2.93;;;1.13;;
7557;SDS011;3820;51.098;13.716;2023-10-08T06:37:52;3.75;;;1.10;;
7557;SDS011;3820;51.098;13.716;2023-10-08T06:40:22;1.45;;;1.17;;
7557;SDS011;3820;51.098;13.716;2023-10-08T06:43:07;2.95;;;1.08;;
7557;SDS011;3820;51.098;13.716;2023-10-08T06:45:50;1.67;;;1.08;;
7557;SDS011;3820;51.098;13.716;2023-10-08T06:48:24;1.13;;;0.88;;
7557;SDS011;3820;51.098;13.716;2023-10-08T06:50:52;2.30;;;1.10;;
7557;SDS011;3820;51.098;13.716;2023-10-08T06:53:23;0.80;;;0.80;;
7557;SDS011;3820;51.098;13.716;2023-10-08T06:55:51;1.15;;;0.82;;
7557;SDS011;3820;51.098;13.716;2023-10-08T06:58:23;5.47;;;1.03;;
7557;SDS011;3820;51.098;13.716;2023-10-08T07:00:51;2.40;;;0.88;;
7557;SDS011;3820;51.098;13.716;2023-10-08T07:03:18;2.08;;;1.30;;
7557;SDS011;3820;51.098;13.716;2023-10-08T07:05:48;2.55;;;1.50;;
7557;SDS011;3820;51.098;13.716;2023-10-08T07:08:29;2.08;;;1.70;;
7557;SDS011;3820;51.098;13.716;2023-10-08T07:11:02;1.75;;;1.30;;
7557;SDS011;3820;51.098;13.716;2023-10-08T07:13:38;2.03;;;1.35;;
7557;SDS011;3820;51.098;13.716;2023-10-08T07:16:06;3.40;;;1.70;;
7557;SDS011;3820;51.098;13.716;2023-10-08T07:18:38;2.72;;;1.50;;
7557;SDS011;3820;51.098;13.716;2023-10-08T07:21:08;2.22;;;1.80;;
7557;SDS011;3820;51.098;13.716;2023-10-08T07:23:39;2.28;;;1.80;;
7557;SDS011;3820;51.098;13.716;2023-10-08T07:26:27;2.77;;;2.10;;
7557;SDS011;3820;51.098;13.716;2023-10-08T07:29:04;2.03;;;1.45;;
7557;SDS011;3820;51.098;13.716;2023-10-08T07:31:36;1.70;;;1.30;;
7557;SDS011;3820;51.098;13.716;2023-10-08T07:34:03;2.25;;;1.55;;
7557;SDS011;3820;51.098;13.716;2023-10-08T07:36:42;2.67;;;1.10;;
7557;SDS011;3820;51.098;13.716;2023-10-08T07:39:09;3.03;;;1.30;;
7557;SDS011;3820;51.098;13.716;2023-10-08T07:41:49;2.47;;;1.40;;
7557;SDS011;3820;51.098;13.716;2023-10-08T07:44:17;3.78;;;1.88;;
7557;SDS011;3820;51.098;13.716;2023-10-08T07:46:51;4.20;;;2.33;;
7557;SDS011;3820;51.098;13.716;2023-10-08T07:49:20;3.45;;;2.38;;
7557;SDS011;3820;51.098;13.716;2023-10-08T07:51:49;2.28;;;1.60;;
7557;SDS011;3820;51.098;13.716;2023-10-08T07:54:22;2.58;;;1.73;;
7557;SDS011;3820;51.098;13.716;2023-10-08T07:56:50;3.30;;;1.75;;
7557;SDS011;3820;51.098;13.716;2023-10-08T07:59:38;2.00;;;1.48;;
7557;SDS011;3820;51.098;13.716;2023-10-08T08:02:09;2.47;;;1.38;;
7557;SDS011;3820;51.098;13.716;2023-10-08T08:04:38;2.40;;;1.27;;
7557;SDS011;3820;51.098;13.716;2023-10-08T08:07:17;2.88;;;1.48;;
7557;SDS011;3820;51.098;13.716;2023-10-08T08:09:46;1.50;;;1.35;;
7557;SDS011;3820;51.098;13.716;2023-10-08T08:12:18;3.40;;;1.27;;
7557;SDS011;3820;51.098;13.716;2023-10-08T08:14:48;2.70;;;1.20;;
7557;SDS011;3820;51.098;13.716;2023-10-08T08:17:17;2.88;;;1.20;;
7557;SDS011;3820;51.098;13.716;2023-10-08T08:19:48;1.42;;;1.20;;
7557;SDS011;3820;51.098;13.716;2023-10-08T08:22:17;4.97;;;1.20;;
7557;SDS011;3820;51.098;13.716;2023-10-08T08:24:50;1.70;;;1.17;;
7557;SDS011;3820;51.098;13.716;2023-10-08T08:27:24;2.50;;;1.30;;
7557;SDS011;3820;51.098;13.716;2023-10-08T08:30:01;2.13;;;1.20;;
7557;SDS011;3820;51.098;13.716;2023-10-08T08:32:37;1.80;;;1.30;;
7557;SDS011;3820;51.098;13.716;2023-10-08T08:35:10;4.25;;;1.35;;
7557;SDS011;3820;51.098;13.716;2023-10-08T08:37:37;1.40;;;1.30;;
7557;SDS011;3820;51.098;13.716;2023-10-08T08:40:04;2.58;;;1.55;;
7557;SDS011;3820;51.098;13.716;2023-10-08T08:42:35;1.83;;;1.50;;
7557;SDS011;3820;51.098;13.716;2023-10-08T08:45:06;2.58;;;1.80;;
7557;SDS011;3820;51.098;13.716;2023-10-08T08:47:36;3.22;;;1.70;;
7557;SDS011;3820;51.098;13.716;2023-10-08T08:50:04;2.38;;;1.73;;
7557;SDS011;3820;51.098;13.716;2023-10-08T08:52:35;2.65;;;1.63;;
7557;SDS011;3820;51.098;13.716;2023-10-08T08:55:06;2.97;;;2.00;;
7557;SDS011;3820;51.098;13.716;2023-10-08T08:57:44;2.33;;;1.52;;
7557;SDS011;3820;51.098;13.716;2023-10-08T09:00:12;3.10;;;2.10;;
7557;SDS011;3820;51.098;13.716;2023-10-08T09:02:40;3.13;;;1.95;;
7557;SDS011;3820;51.098;13.716;2023-10-08T09:05:08;3.40;;;1.83;;
7557;SDS011;3820;51.098;13.716;2023-10-08T09:07:54;3.75;;;1.70;;
7557;SDS011;3820;51.098;13.716;2023-10-08T09:10:22;2.15;;;1.60;;
7557;SDS011;3820;51.098;13.716;2023-10-08T09:12:55;2.53;;;1.83;;
7557;SDS011;3820;51.098;13.716;2023-10-08T09:15:26;2.83;;;1.90;;
7557;SDS011;3820;51.098;13.716;2023-10-08T09:17:53;5.20;;;1.50;;
7557;SDS011;3820;51.098;13.716;2023-10-08T09:20:28;2.58;;;1.75;;
7557;SDS011;3820;51.098;13.716;2023-10-08T09:23:11;2.90;;;1.70;;
7557;SDS011;3820;51.098;13.716;2023-10-08T09:25:42;3.28;;;1.65;;
7557;SDS011;3820;51.098;13.716;2023-10-08T09:28:09;2.00;;;1.70;;
7557;SDS011;3820;51.098;13.716;2023-10-08T09:30:40;8.70;;;4.13;;
7557;SDS011;3820;51.098;13.716;2023-10-08T09:33:07;5.47;;;4.45;;
7557;SDS011;3820;51.098;13.716;2023-10-08T09:35:35;4.35;;;3.72;;
7557;SDS011;3820;51.098;13.716;2023-10-08T09:38:03;3.63;;;2.78;;
7557;SDS011;3820;51.098;13.716;2023-10-08T09:40:31;2.55;;;1.95;;
7557;SDS011;3820;51.098;13.716;2023-10-08T09:42:58;3.80;;;2.22;;
7557;SDS011;3820;51.098;13.716;2023-10-08T09:45:25;2.70;;;1.75;;
7557;SDS011;3820;51.098;13.716;2023-10-08T09:47:55;3.42;;;1.90;;
7557;SDS011;3820;51.098;13.716;2023-10-08T09:50:32;1.83;;;1.60;;
7557;SDS011;3820;51.098;13.716;2023-10-08T09:53:13;3.15;;;1.98;;
7557;SDS011;3820;51.098;13.716;2023-10-08T09:55:44;6.88;;;4.78;;
7557;SDS011;3820;51.098;13.716;2023-10-08T09:58:25;6.72;;;5.00;;
7557;SDS011;3820;51.098;13.716;2023-10-08T10:00:54;4.28;;;3.17;;
7557;SDS011;3820;51.098;13.716;2023-10-08T10:03:24;10.50;;;6.60;;
7557;SDS011;3820;51.098;13.716;2023-10-08T10:05:52;7.13;;;2.80;;
7557;SDS011;3820;51.098;13.716;2023-10-08T10:08:25;4.95;;;1.95;;
7557;SDS011;3820;51.098;13.716;2023-10-08T10:10:58;3.92;;;1.73;;
7557;SDS011;3820;51.098;13.716;2023-10-08T10:13:29;6.00;;;1.98;;
7557;SDS011;3820;51.098;13.716;2023-10-08T10:16:00;4.53;;;2.05;;
7557;SDS011;3820;51.098;13.716;2023-10-08T10:18:28;3.30;;;2.13;;
7557;SDS011;3820;51.098;13.716;2023-10-08T10:21:00;3.10;;;1.75;;
7557;SDS011;3820;51.098;13.716;2023-10-08T10:23:48;3.58;;;1.60;;
7557;SDS011;3820;51.098;13.716;2023-10-08T10:29:17;3.83;;;1.38;;
7557;SDS011;3820;51.098;13.716;2023-10-08T10:31:52;2.40;;;1.35;;
7557;SDS011;3820;51.098;13.716;2023-10-08T10:34:21;3.50;;;1.40;;
7557;SDS011;3820;51.098;13.716;2023-10-08T10:36:57;2.75;;;1.60;;
7557;SDS011;3820;51.098;13.716;2023-10-08T10:39:26;1.67;;;1.25;;
7557;SDS011;3820;51.098;13.716;2023-10-08T10:41:54;1.90;;;1.38;;
7557;SDS011;3820;51.098;13.716;2023-10-08T10:44:28;2.97;;;1.67;;
7557;SDS011;3820;51.098;13.716;2023-10-08T10:46:59;3.00;;;1.30;;
7557;SDS011;3820;51.098;13.716;2023-10-08T10:49:47;2.50;;;1.45;;
7557;SDS011;3820;51.098;13.716;2023-10-08T10:52:41;1.80;;;1.20;;
7557;SDS011;3820;51.098;13.716;2023-10-08T10:55:13;4.53;;;1.50;;
7557;SDS011;3820;51.098;13.716;2023-10-08T10:57:40;2.35;;;0.93;;
7557;SDS011;3820;51.098;13.716;2023-10-08T11:00:08;4.45;;;1.13;;
7557;SDS011;3820;51.098;13.716;2023-10-08T11:02:55;1.58;;;1.05;;
7557;SDS011;3820;51.098;13.716;2023-10-08T11:05:26;2.28;;;1.45;;
7557;SDS011;3820;51.098;13.716;2023-10-08T11:07:56;2.90;;;1.10;;
7557;SDS011;3820;51.098;13.716;2023-10-08T11:10:33;1.67;;;1.05;;
7557;SDS011;3820;51.098;13.716;2023-10-08T11:13:05;1.30;;;1.02;;
7557;SDS011;3820;51.098;13.716;2023-10-08T11:15:41;3.50;;;1.35;;
7557;SDS011;3820;51.098;13.716;2023-10-08T11:18:09;2.47;;;1.20;;
7557;SDS011;3820;51.098;13.716;2023-10-08T11:20:38;2.50;;;1.50;;
7557;SDS011;3820;51.098;13.716;2023-10-08T11:23:11;1.73;;;1.42;;
7557;SDS011;3820;51.098;13.716;2023-10-08T11:25:56;1.63;;;0.93;;
7557;SDS011;3820;51.098;13.716;2023-10-08T11:28:38;3.10;;;1.02;;
7557;SDS011;3820;51.098;13.716;2023-10-08T11:31:12;1.90;;;0.95;;
7557;SDS011;3820;51.098;13.716;2023-10-08T11:33:41;3.78;;;1.17;;
7557;SDS011;3820;51.098;13.716;2023-10-08T11:36:09;4.15;;;1.15;;
7557;SDS011;3820;51.098;13.716;2023-10-08T11:38:45;1.15;;;1.02;;
7557;SDS011;3820;51.098;13.716;2023-10-08T11:41:17;2.65;;;1.10;;
7557;SDS011;3820;51.098;13.716;2023-10-08T11:43:50;2.58;;;1.58;;
7557;SDS011;3820;51.098;13.716;2023-10-08T11:48:59;2.17;;;0.98;;
7557;SDS011;3820;51.098;13.716;2023-10-08T11:51:31;1.80;;;0.85;;
7557;SDS011;3820;51.098;13.716;2023-10-08T11:54:00;1.80;;;1.10;;
7557;SDS011;3820;51.098;13.716;2023-10-08T11:56:30;1.75;;;1.15;;
7557;SDS011;3820;51.098;13.716;2023-10-08T11:59:02;2.55;;;1.30;;
7557;SDS011;3820;51.098;13.716;2023-10-08T12:01:35;5.38;;;1.38;;
7557;SDS011;3820;51.098;13.716;2023-10-08T12:04:04;1.63;;;1.20;;
7557;SDS011;3820;51.098;13.716;2023-10-08T12:06:33;1.42;;;1.20;;
7557;SDS011;3820;51.098;13.716;2023-10-08T12:09:09;1.95;;;0.98;;
7557;SDS011;3820;51.098;13.716;2023-10-08T12:11:39;1.40;;;1.17;;
7557;SDS011;3820;51.098;13.716;2023-10-08T12:14:06;1.63;;;1.20;;
7557;SDS011;3820;51.098;13.716;2023-10-08T12:16:33;1.95;;;1.25;;
7557;SDS011;3820;51.098;13.716;2023-10-08T12:19:03;1.58;;;1.02;;
7557;SDS011;3820;51.098;13.716;2023-10-08T12:21:42;2.95;;;1.00;;
7557;SDS011;3820;51.098;13.716;2023-10-08T12:24:13;1.02;;;0.93;;
7557;SDS011;3820;51.098;13.716;2023-10-08T12:26:41;2.67;;;1.30;;
7557;SDS011;3820;51.098;13.716;2023-10-08T12:29:12;3.22;;;1.27;;
7557;SDS011;3820;51.098;13.716;2023-10-08T12:31:45;1.40;;;0.98;;
7557;SDS011;3820;51.098;13.716;2023-10-08T12:34:14;3.58;;;1.02;;
7557;SDS011;3820;51.098;13.716;2023-10-08T12:36:41;1.60;;;1.20;;
7557;SDS011;3820;51.098;13.716;2023-10-08T12:39:08;3.45;;;1.08;;
7557;SDS011;3820;51.098;13.716;2023-10-08T12:41:41;4.85;;;1.25;;
7557;SDS011;3820;51.098;13.716;2023-10-08T12:44:11;1.58;;;1.20;;
7557;SDS011;3820;51.098;13.716;2023-10-08T12:46:38;2.90;;;1.15;;
7557;SDS011;3820;51.098;13.716;2023-10-08T12:49:05;1.77;;;0.82;;
7557;SDS011;3820;51.098;13.716;2023-10-08T12:51:33;2.75;;;1.10;;
7557;SDS011;3820;51.098;13.716;2023-10-08T12:54:00;1.52;;;1.17;;
7557;SDS011;3820;51.098;13.716;2023-10-08T12:56:33;1.38;;;1.08;;
7557;SDS011;3820;51.098;13.716;2023-10-08T12:59:15;4.32;;;1.02;;
7557;SDS011;3820;51.098;13.716;2023-10-08T13:01:50;2.65;;;1.30;;
7557;SDS011;3820;51.098;13.716;2023-10-08T13:04:23;3.53;;;1.23;;
7557;SDS011;3820;51.098;13.716;2023-10-08T13:06:55;1.20;;;1.00;;
7557;SDS011;3820;51.098;13.716;2023-10-08T13:09:24;1.33;;;1.00;;
7557;SDS011;3820;51.098;13.716;2023-10-08T13:11:51;3.47;;;1.02;;
7557;SDS011;3820;51.098;13.716;2023-10-08T13:14:18;1.55;;;1.13;;
7557;SDS011;3820;51.098;13.716;2023-10-08T13:16:45;1.30;;;1.02;;
7557;SDS011;3820;51.098;13.716;2023-10-08T13:19:12;1.42;;;0.90;;
7557;SDS011;3820;51.098;13.716;2023-10-08T13:21:39;1.40;;;0.98;;
7557;SDS011;3820;51.098;13.716;2023-10-08T13:24:06;3.08;;;1.33;;
7557;SDS011;3820;51.098;13.716;2023-10-08T13:26:37;1.58;;;1.13;;
7557;SDS011;3820;51.098;13.716;2023-10-08T13:29:05;1.23;;;0.90;;
7557;SDS011;3820;51.098;13.716;2023-10-08T13:31:32;2.70;;;0.88;;
7557;SDS011;3820;51.098;13.716;2023-10-08T13:34:03;1.85;;;0.90;;
7557;SDS011;3820;51.098;13.716;2023-10-08T13:36:35;2.50;;;1.25;;
7557;SDS011;3820;51.098;13.716;2023-10-08T13:39:07;1.13;;;0.90;;
7557;SDS011;3820;51.098;13.716;2023-10-08T13:41:36;2.20;;;1.08;;
7557;SDS011;3820;51.098;13.716;2023-10-08T13:44:08;1.70;;;1.10;;
7557;SDS011;3820;51.098;13.716;2023-10-08T13:46:34;1.00;;;0.93;;
7557;SDS011;3820;51.098;13.716;2023-10-08T13:49:03;1.25;;;0.98;;
7557;SDS011;3820;51.098;13.716;2023-10-08T13:51:32;1.38;;;0.85;;
7557;SDS011;3820;51.098;13.716;2023-10-08T13:54:01;2.92;;;1.17;;
7557;SDS011;3820;51.098;13.716;2023-10-08T13:56:32;2.67;;;0.90;;
7557;SDS011;3820;51.098;13.716;2023-10-08T13:58:59;2.38;;;1.10;;
7557;SDS011;3820;51.098;13.716;2023-10-08T14:01:31;1.27;;;0.80;;
7557;SDS011;3820;51.098;13.716;2023-10-08T14:04:00;2.80;;;1.30;;
7557;SDS011;3820;51.098;13.716;2023-10-08T14:06:35;1.52;;;1.10;;
7557;SDS011;3820;51.098;13.716;2023-10-08T14:09:03;1.10;;;0.90;;
7557;SDS011;3820;51.098;13.716;2023-10-08T14:11:39;3.33;;;0.95;;
7557;SDS011;3820;51.098;13.716;2023-10-08T14:14:05;1.50;;;1.20;;
7557;SDS011;3820;51.098;13.716;2023-10-08T14:16:40;2.67;;;1.15;;
7557;SDS011;3820;51.098;13.716;2023-10-08T14:19:13;0.98;;;0.85;;
7557;SDS011;3820;51.098;13.716;2023-10-08T14:21:40;3.55;;;1.20;;
7557;SDS011;3820;51.098;13.716;2023-10-08T14:24:21;1.38;;;1.05;;
7557;SDS011;3820;51.098;13.716;2023-10-08T14:26:48;2.08;;;1.40;;
7557;SDS011;3820;51.098;13.716;2023-10-08T14:29:23;2.88;;;1.40;;
7557;SDS011;3820;51.098;13.716;2023-10-08T14:31:53;3.47;;;1.20;;
7557;SDS011;3820;51.098;13.716;2023-10-08T14:34:23;1.25;;;1.10;;
7557;SDS011;3820;51.098;13.716;2023-10-08T14:37:09;2.50;;;1.33;;
7557;SDS011;3820;51.098;13.716;2023-10-08T14:39:54;2.42;;;1.30;;
7557;SDS011;3820;51.098;13.716;2023-10-08T14:42:57;2.67;;;1.40;;
7557;SDS011;3820;51.098;13.716;2023-10-08T14:45:30;1.63;;;1.05;;
7557;SDS011;3820;51.098;13.716;2023-10-08T14:47:59;5.13;;;2.38;;
7557;SDS011;3820;51.098;13.716;2023-10-08T14:50:27;7.45;;;3.10;;
7557;SDS011;3820;51.098;13.716;2023-10-08T14:52:54;5.28;;;2.70;;
7557;SDS011;3820;51.098;13.716;2023-10-08T14:55:21;3.85;;;1.60;;
7557;SDS011;3820;51.098;13.716;2023-10-08T14:57:49;4.55;;;1.58;;
7557;SDS011;3820;51.098;13.716;2023-10-08T15:00:20;1.75;;;1.33;;
7557;SDS011;3820;51.098;13.716;2023-10-08T15:02:53;2.35;;;1.70;;
7557;SDS011;3820;51.098;13.716;2023-10-08T15:05:24;1.85;;;1.60;;
7557;SDS011;3820;51.098;13.716;2023-10-08T15:07:51;3.10;;;2.05;;
7557;SDS011;3820;51.098;13.716;2023-10-08T15:10:18;7.40;;;4.10;;
7557;SDS011;3820;51.098;13.716;2023-10-08T15:12:45;6.78;;;4.53;;
7557;SDS011;3820;51.098;13.716;2023-10-08T15:15:12;6.95;;;3.90;;
7557;SDS011;3820;51.098;13.716;2023-10-08T15:17:40;8.32;;;5.18;;
7557;SDS011;3820;51.098;13.716;2023-10-08T15:20:08;9.13;;;4.95;;
7557;SDS011;3820;51.098;13.716;2023-10-08T15:22:41;6.75;;;4.13;;
7557;SDS011;3820;51.098;13.716;2023-10-08T15:25:12;3.97;;;2.50;;
7557;SDS011;3820;51.098;13.716;2023-10-08T15:27:40;2.75;;;2.00;;
7557;SDS011;3820;51.098;13.716;2023-10-08T15:30:08;3.05;;;1.73;;
7557;SDS011;3820;51.098;13.716;2023-10-08T15:32:38;2.97;;;1.65;;
7557;SDS011;3820;51.098;13.716;2023-10-08T15:35:07;2.47;;;1.40;;
7557;SDS011;3820;51.098;13.716;2023-10-08T15:37:38;1.95;;;1.45;;